• Join FlightAware (Why Join?)
  • Login
  • US Flag 
06:27AM EDT


 

Airport Tracker/Info


-or-


 

Live Flight TrackerFlight Track Log ✈ SWA1488 ✈ 04-May-2013 ✈ KDEN - KGEG

Flight Track Log - Related Links

Times and Time Zones

All times are in EDT time to prevent confusion due to time zone crossing. See the SWA1488 flight status page for this flight to view local times or setup timezone preferences in your user account.

Time Position Orientation Groundspeed Altitude Reporting Facility
EDT Latitude Longitude Course Direction KTS MPH feet Rate Location/Type
02:05PM 39.9333 -104.6833 327° Northwest 180 207 7,200  Level Denver TRACON
02:05PM 39.9833 -104.7167 333° Northwest 229 264 9,100 2,400 Climbing Denver TRACON
02:06PM 39.9967 -104.7158 North 233 268 10,000 1,980 Climbing Denver Center
02:07PM 40.0753 -104.7436 345° North 297 342 11,700 2,700 Climbing Denver Center
02:08PM 40.1744 -104.7931 339° North 351 404 15,600 3,480 Climbing Denver Center
02:09PM 40.2675 -104.8369 340° North 354 407 18,900 2,580 Climbing Denver Center
02:10PM 40.2197 -104.5311 327° Northwest  Level FlightAware Approximate
02:10PM 40.3678 -104.8825 341° North 381 438 21,500  Level Denver Center
02:11PM 40.4917 -104.9433 340° North 401 461 24,600 2,520 Climbing Denver Center
02:12PM 40.6006 -104.9922 341° North 411 473 26,800 2,100 Climbing Denver Center
02:13PM 40.7142 -105.0469 340° North 428 493 29,000 2,280 Climbing Denver Center
02:14PM 40.8286 -105.1392 329° Northwest 417 480 31,500 2,040 Climbing Denver Center
02:15PM 40.9147 -105.2367 319° Northwest 407 468 33,700 1,620 Climbing Denver Center
02:16PM 41.0156 -105.3519 319° Northwest 409 471 35,200 1,080 Climbing Denver Center
02:17PM 41.1011 -105.4478 320° Northwest 418 481 36,000 720 Climbing Denver Center
02:18PM 41.2042 -105.5678 319° Northwest 435 501 36,800 960 Climbing Denver Center
02:19PM 41.2925 -105.6689 319° Northwest 436 502 38,000 1,080 Climbing Denver Center
02:21PM 41.3778 -105.8067 310° West 433 498 39,100 840 Climbing Denver Center
02:22PM 41.4394 -105.9367 302° West 432 497 39,800 420 Climbing Denver Center
02:23PM 41.5117 -106.0911 302° West 440 506 40,000 60 Climbing Denver Center
02:24PM 41.5747 -106.2239 302° West 443 510 40,000  Level Denver Center
02:25PM 41.6364 -106.3583 302° West 441 507 40,000  Level Denver Center
02:26PM 41.7075 -106.5139 302° West 439 505 40,000  Level Denver Center
02:27PM 41.7747 -106.6592 302° West 438 504 40,000  Level Denver Center
02:28PM 41.8458 -106.8142 302° West 438 504 40,000  Level Denver Center
02:29PM 41.9172 -106.9714 301° West 442 509 40,000  Level Denver Center
02:30PM 41.9769 -107.1047 301° West 439 505 40,000  Level Denver Center
02:31PM 42.0489 -107.2636 301° West 444 511 40,000  Level Denver Center
02:32PM 42.1069 -107.3975 300° West 437 503 40,000  Level Denver Center
02:33PM 42.1683 -107.5336 301° West 443 510 40,000  Level Denver Center
02:34PM 42.2386 -107.6919 301° West 442 509 40,000  Level Denver Center
02:35PM 42.3178 -107.8750 300° West 443 510 40,000  Level Salt Lake Center
02:36PM 42.3794 -108.0133 301° West 448 516 40,000  Level Salt Lake Center
02:37PM 42.4500 -108.1764 300° West 452 520 40,000  Level Salt Lake Center
02:38PM 42.5117 -108.3178 301° West 455 524 40,000  Level Salt Lake Center
02:39PM 42.5725 -108.4572 301° West 453 521 40,000  Level Salt Lake Center
02:40PM 42.6425 -108.6228 300° West 454 522 40,000  Level Salt Lake Center
02:41PM 42.7028 -108.7642 300° West 453 521 40,000  Level Salt Lake Center
02:43PM 42.7728 -108.9294 300° West 453 521 40,000  Level Salt Lake Center
02:44PM 42.8328 -109.0717 300° West 454 522 40,000  Level Salt Lake Center
02:45PM 42.9028 -109.2350 300° West 449 517 40,000  Level Salt Lake Center
02:46PM 42.9614 -109.3764 300° West 448 516 40,000  Level Salt Lake Center
02:47PM 43.0219 -109.5244 299° West 450 518 40,000  Level Salt Lake Center
02:48PM 43.0903 -109.6875 300° West 445 512 40,000  Level Salt Lake Center
02:49PM 43.1475 -109.8267 299° West 441 507 40,000  Level Salt Lake Center
02:50PM 43.2131 -109.9900 299° West 439 505 40,000  Level Salt Lake Center
02:51PM 43.2694 -110.1222 300° West 437 503 40,000  Level Salt Lake Center
02:52PM 43.3367 -110.2872 299° West 445 512 40,000  Level Salt Lake Center
02:53PM 43.3944 -110.4297 299° West 447 514 40,000  Level Salt Lake Center
02:54PM 43.4583 -110.5917 299° West 448 516 40,000  Level Salt Lake Center
02:55PM 43.5228 -110.7469 300° West 445 512 40,000  Level Salt Lake Center
02:56PM 43.5794 -110.8928 298° West 450 518 40,000  Level Salt Lake Center
02:57PM 43.6369 -111.0386 299° West 453 521 40,000  Level Salt Lake Center
02:58PM 43.7039 -111.2075 299° West 449 517 40,000  Level Salt Lake Center
02:59PM 43.7606 -111.3531 298° West 447 514 40,000  Level Salt Lake Center
03:00PM 43.8269 -111.5258 298° West 452 520 40,000  Level Salt Lake Center
03:01PM 43.8836 -111.6725 298° West 451 519 40,000  Level Salt Lake Center
03:02PM 43.9419 -111.8211 299° West 454 522 40,000  Level Salt Lake Center
03:03PM 44.0081 -111.9947 298° West 455 524 40,000  Level Salt Lake Center
03:04PM 44.0639 -112.1442 298° West 455 524 40,000  Level Salt Lake Center
03:05PM 44.1286 -112.2872 302° West 457 526 40,000  Level Salt Lake Center
03:06PM 44.2125 -112.4506 306° West 460 529 40,000  Level Salt Lake Center
03:07PM 44.2950 -112.5758 313° West 461 531 40,000  Level Salt Lake Center
03:08PM 44.3939 -112.7181 314° West 456 525 40,000  Level Salt Lake Center
03:09PM 44.4797 -112.8389 315° West 456 525 40,000  Level Salt Lake Center
03:10PM 44.5656 -112.9614 315° West 458 527 40,000  Level Salt Lake Center
03:11PM 44.6650 -113.1044 314° West 458 527 40,000  Level Salt Lake Center
03:12PM 44.7497 -113.2261 314° West 456 525 40,000  Level Salt Lake Center
03:13PM 44.8489 -113.3706 314° West 458 527 40,000  Level Salt Lake Center
03:14PM 44.9317 -113.4914 314° West 451 519 40,000  Level Salt Lake Center
03:15PM 45.0150 -113.6136 314° West 452 520 40,000  Level Salt Lake Center
03:16PM 45.1089 -113.7556 313° West 442 509 40,000  Level Salt Lake Center
03:17PM 45.1928 -113.8767 315° West 447 514 40,000  Level Salt Lake Center
03:18PM 45.2878 -114.0144 314° West 456 525 40,000  Level Salt Lake Center
03:19PM 45.3683 -114.1372 313° West 449 517 40,000  Level Salt Lake Center
03:20PM 45.4639 -114.2817 313° West 450 518 40,000  Level Salt Lake Center
03:21PM 45.5464 -114.4047 314° West 448 516 40,000  Level Salt Lake Center
03:22PM 45.6411 -114.5486 313° West 446 513 40,000  Level Salt Lake Center
03:24PM 45.7217 -114.6711 313° West 444 511 40,000  Level Salt Lake Center
03:25PM 45.8036 -114.7972 313° West 449 517 40,000  Level Salt Lake Center
03:26PM 45.8994 -114.9450 313° West 453 521 40,000  Level Salt Lake Center
03:27PM 45.9786 -115.0672 313° West 443 510 40,000 -60 Level Salt Lake Center
03:28PM 46.0706 -115.2114 313° West 439 505 39,900 -300 Descending Salt Lake Center
03:28PM 46.0925 -115.2442 314° West 441 507 39,600 -900 Descending Seattle Center
03:29PM 46.1414 -115.3211 313° West 439 505 39,000 -1,200 Descending Salt Lake Center
03:29PM 46.1903 -115.3983 312° West 435 501 38,400 -1,080 Descending Seattle Center
03:30PM 46.2722 -115.5278 313° West 437 503 37,500 -1,680 Descending Seattle Center
03:31PM 46.3567 -115.6597 313° West 446 513 35,100 -2,280 Descending Seattle Center
03:32PM 46.4394 -115.7944 312° West 448 516 32,900 -2,160 Descending Seattle Center
03:33PM 46.5192 -115.9172 313° West 426 490 30,800 -2,100 Descending Seattle Center
03:34PM 46.5944 -116.0389 312° West 409 471 28,700 -2,040 Descending Seattle Center
03:35PM 46.6667 -116.1569 312° West 395 455 26,700 -2,220 Descending Seattle Center
03:36PM 46.7369 -116.2703 312° West 382 440 24,300 -2,460 Descending Seattle Center
03:37PM 46.8094 -116.3842 313° West 383 441 21,700 -2,220 Descending Seattle Center
03:38PM 46.8789 -116.5008 311° West 383 441 19,900 -1,680 Descending Seattle Center
03:39PM 46.9494 -116.6139 312° West 376 433 18,400 -1,380 Descending Seattle Center
03:40PM 47.0183 -116.7275 312° West 375 432 17,200 -1,620 Descending Seattle Center
03:41PM 47.0975 -116.8578 312° West 355 409 15,200 -1,920 Descending Seattle Center
03:42PM 47.1592 -116.9606 311° West 337 388 13,300 -1,860 Descending Seattle Center
03:43PM 47.2217 -117.0628 312° West 335 386 11,500 -1,620 Descending Seattle Center
03:44PM 47.2839 -117.1667 311° West 320 368 10,100 -1,320 Descending Seattle Center
03:45PM 47.3361 -117.2558 311° West 290 334 8,900 -1,380 Descending Seattle Center
03:46PM 47.3664 -117.3592 293° West 288 331 7,300 -1,380 Descending Seattle Center
03:47PM 47.3983 -117.4653 294° West 283 326 6,100 -900 Descending Seattle Center
03:48PM 47.4419 -117.5453 309° West 250 288 5,500 -840 Descending Seattle Center
03:49PM 47.4853 -117.6108 314° West 225 259 4,400 -720 Descending Seattle Center
03:50PM 47.5322 -117.6439 335° Northwest 187 215 4,100 -420 Descending Seattle Center
03:51PM 47.5703 -117.6106 31° Northeast 163 188 3,600 -600 Descending Seattle Center
03:52PM 47.5956 -117.5719 46° Northeast 134 154 2,900 -600 Descending Seattle Center
03:53PM 47.6214 -117.5344 44° Northeast 131 151 2,400 -300 Descending Seattle Center
03:54PM 47.6244 -117.5339 North 63 72 2,400  Level Seattle Center
03:56PM 47.6167 -117.5333 North  Level FlightAware Approximate